createdAt,value
2022-11-12T11:46:15.528Z,10.40
2022-11-12T11:47:15.547Z,10.44
2022-11-12T11:48:15.588Z,10.59
2022-11-12T11:49:15.644Z,10.56
2022-11-12T11:50:15.684Z,10.73
2022-11-12T11:51:15.761Z,10.68
2022-11-12T11:52:15.779Z,10.77
2022-11-12T11:53:15.844Z,10.70
2022-11-12T11:54:15.867Z,10.47
2022-11-12T11:55:15.911Z,10.33
2022-11-12T11:56:15.987Z,10.26
2022-11-12T11:57:16.010Z,10.30
2022-11-12T11:58:16.053Z,10.14
2022-11-12T11:59:16.103Z,10.17
2022-11-12T12:00:16.150Z,10.24
2022-11-12T12:01:16.243Z,10.26
2022-11-12T12:02:16.248Z,10.40
2022-11-12T12:03:16.342Z,10.53
2022-11-12T12:04:16.338Z,10.58
2022-11-12T12:05:16.398Z,10.74
2022-11-12T12:06:16.469Z,10.86
2022-11-12T12:07:16.588Z,10.95
2022-11-12T12:08:16.534Z,11.14
2022-11-12T12:09:16.577Z,11.25
2022-11-12T12:10:16.620Z,11.31
2022-11-12T12:11:16.698Z,11.32
2022-11-12T12:12:16.721Z,11.41
2022-11-12T12:13:16.769Z,11.32
2022-11-12T12:14:16.816Z,11.34
2022-11-12T12:15:16.865Z,11.27
2022-11-12T12:16:16.940Z,11.25
2022-11-12T12:17:16.956Z,11.17
2022-11-12T12:18:17.008Z,11.13
2022-11-12T12:19:17.054Z,11.06
2022-11-12T12:20:18.094Z,10.94
2022-11-12T12:21:17.175Z,10.89
2022-11-12T12:22:17.204Z,10.96
2022-11-12T12:23:17.287Z,11.07
2022-11-12T12:24:17.294Z,11.13
2022-11-12T12:25:17.338Z,11.11
2022-11-12T12:26:17.391Z,11.24
2022-11-12T12:27:18.091Z,11.28
2022-11-12T12:28:17.511Z,11.29
2022-11-12T12:29:17.553Z,11.35
2022-11-12T12:30:17.594Z,11.31
2022-11-12T12:31:17.629Z,11.32
2022-11-12T12:32:23.056Z,11.31
2022-11-12T12:33:17.730Z,11.41
2022-11-12T12:34:17.807Z,11.43
2022-11-12T12:35:17.817Z,11.32
2022-11-12T12:36:17.869Z,11.34
2022-11-12T12:37:17.931Z,11.24
2022-11-12T12:38:17.967Z,11.01
2022-11-12T12:39:18.045Z,10.99
2022-11-12T12:40:18.088Z,10.77
2022-11-12T12:41:18.111Z,10.78
2022-11-12T12:42:18.163Z,10.66
2022-11-12T12:43:18.211Z,10.65
2022-11-12T12:44:18.257Z,10.63
2022-11-12T12:45:18.331Z,10.66
2022-11-12T12:46:18.409Z,10.66
2022-11-12T12:47:18.425Z,10.78
2022-11-12T12:48:18.447Z,10.81
2022-11-12T12:49:18.497Z,10.73
2022-11-12T12:50:18.544Z,10.66
2022-11-12T12:51:18.592Z,10.63
2022-11-12T12:52:18.660Z,10.46
2022-11-12T12:53:18.686Z,10.17
2022-11-12T12:54:18.759Z,10.07
2022-11-12T12:55:18.783Z,10.09
2022-11-12T12:56:18.838Z,10.17
2022-11-12T12:57:18.910Z,10.32
2022-11-12T12:58:18.931Z,10.40
2022-11-12T12:59:18.979Z,10.37
2022-11-12T13:00:19.021Z,10.52
2022-11-12T13:01:19.143Z,10.53
2022-11-12T13:02:19.150Z,10.60
2022-11-12T13:03:19.196Z,10.60
2022-11-12T13:04:19.211Z,10.52
2022-11-12T13:05:19.263Z,10.43
2022-11-12T13:06:19.309Z,10.26
2022-11-12T13:07:19.404Z,10.25
2022-11-12T13:08:19.427Z,10.34
2022-11-12T13:09:19.455Z,10.43
2022-11-12T13:10:19.499Z,10.44
2022-11-12T13:11:19.566Z,10.40
2022-11-12T13:12:19.593Z,10.36
2022-11-12T13:13:19.642Z,10.24
2022-11-12T13:14:19.711Z,10.33
2022-11-12T13:15:19.731Z,10.52
2022-11-12T13:16:19.778Z,10.51
2022-11-12T13:17:19.829Z,10.59
2022-11-12T13:18:19.874Z,10.74
2022-11-12T13:19:19.952Z,10.83
2022-11-12T13:20:19.997Z,10.73
2022-11-12T13:21:20.028Z,10.74
2022-11-12T13:22:20.060Z,10.74
2022-11-12T13:23:20.116Z,10.78
2022-11-12T13:24:20.159Z,10.83
2022-11-12T13:25:20.227Z,10.88
2022-11-12T13:26:22.126Z,10.73
2022-11-12T13:27:20.301Z,10.73
2022-11-12T13:28:20.363Z,10.77
2022-11-12T13:29:21.165Z,10.84
